Home > Products > Valid Products > TAF

000
FTUS44 KLUB 191700
TAFLBB
TAF
KLBB 191724Z 1918/2018 13011KT P6SM -SHRA BKN007 OVC015
     FM192100 13011KT P6SM -SHRA SCT007 BKN020 OVC060
     FM200300 13009KT 3SM -SHRA BR OVC004=



000
FTUS44 KLUB 191700
TAFCDS
TAF
KCDS 191724Z 1918/2018 15008KT P6SM SCT015 OVC035
      TEMPO 1918/1920 BKN015
     FM200900 15007KT 5SM -SHRA BR SCT007 OVC015=



000
FTUS44 KLUB 191100
TAFLBB
TAF
KLBB 191120Z 1912/2012 12007KT 2SM -SHRA BR OVC002
     FM191700 13010G15KT 5SM RA BR OVC010
      TEMPO 1918/1922 1SM +TSRA OVC007CB
     FM200700 14009KT 4SM RA BR OVC008=



000
FTUS44 KLUB 191100
TAFCDS
TAF
KCDS 191120Z 1912/2012 11004KT P6SM BKN006 OVC030
     FM191900 15009KT P6SM -SHRA OVC035
     FM200900 15007KT 5SM RA BR OVC025=



000
FTUS44 KLUB 191100 AAB
TAFCDS
TAF AMD
KCDS 191109Z 1911/2006 VRB03KT P6SM BKN006
     FM191700 15008KT P6SM -SHRA OVC035=



000
FTUS44 KLUB 191000 AAD
TAFLBB
TAF AMD
KLBB 190958Z 1910/2006 13005KT P6SM -RA OVC002
     FM191800 14010KT 5SM RA BR OVC012=



000
FTUS44 KLUB 190900 AAA
TAFCDS
TAF AMD
KCDS 190857Z 1909/2006 16003KT P6SM SCT020
      TEMPO 1909/1910 BKN020
     FM191000 16005KT 6SM BR OVC010
     FM191700 15008KT P6SM -SHRA OVC035=



000
FTUS44 KLUB 190700 AAC
TAFLBB
TAF AMD
KLBB 190657Z 1907/2006 13007KT P6SM OVC007
      TEMPO 1907/1908 OVC004
     FM190800 11008KT 3SM -RA BR OVC003
     FM191800 14010KT 5SM RA BR OVC012=



000
FTUS44 KLUB 190600 AAB
TAFLBB
TAF AMD
KLBB 190632Z 1907/2006 13007KT P6SM BKN008 OVC050
     FM190700 11008KT 3SM -RA BR OVC003
     FM191800 14010KT 5SM RA BR OVC012=



000
FTUS44 KLUB 190500 AAA
TAFLBB
TAF AMD
KLBB 190521Z 1906/2006 13007KT P6SM SCT050 BKN060 OVC100
     FM190700 11008KT 3SM -RA BR OVC003
     FM191800 14010KT 5SM RA BR OVC012=



000
FTUS44 KLUB 190500
TAFLBB
TAF
KLBB 190520Z 1906/2006 13007KT P6SM -RA OVC005
     FM190700 11008KT 3SM -RA BR OVC003
     FM191800 14010KT 5SM RA BR OVC012=



000
FTUS44 KLUB 190500
TAFCDS
TAF
KCDS 190520Z 1906/2006 16004KT P6SM OVC020
     FM190900 16008KT 6SM BR OVC010
     FM191700 15008KT P6SM -SHRA OVC035=



000
FTUS44 KLUB 190500 AAA
TAFLBB
TAF AMD
KLBB 190509Z 1906/2006 13007KT P6SM SCT005 BKN060 OVC100
     FM190700 11008KT 3SM -RA BR OVC003
     FM191800 14010KT 5SM RA BR OVC012=



000
FTUS44 KLUB 190200 AAA
TAFCDS
TAF AMD
KCDS 190230Z 1903/1924 14006KT P6SM BKN020 OVC090
     FM190900 16008KT 6SM BR OVC010
     FM191700 15008KT P6SM BKN035=



000
FTUS44 KLUB 190200 AAA
TAFLBB
TAF AMD
KLBB 190229Z 1902/1924 13008KT P6SM SCT010 OVC090
      TEMPO 1902/1905 OVC010
     FM190500 11008KT 3SM -SHRA BR OVC006
     FM191800 14010KT 5SM RA BR BKN015=



000
FTUS44 KLUB 182300 RRA
TAFLBB
TAF
KLBB 182341Z 1900/1924 13008KT P6SM SCT010 OVC090
      TEMPO 1900/1904 BKN010
     FM190700 11008KT 3SM -SHRA BR OVC006
     FM191800 14010KT 5SM RA BR BKN015=



000
FTUS44 KLUB 182300 RRA
TAFCDS
TAF
KCDS 182341Z 1900/1924 14006KT P6SM SCT020 OVC090
     FM190900 16008KT 6SM BR OVC010
     FM191700 15008KT P6SM BKN035=



000
FTUS44 KLUB 182100 AAC
TAFLBB
TAF AMD
KLBB 182132Z 1822/1918 13015KT P6SM SCT010 BKN040 OVC090
     FM190200 17008KT 6SM RA BR SCT015 BKN110
     FM190900 11010KT 3SM -RA BR OVC008=



000
FTUS44 KLUB 182000 AAA
TAFCDS
TAF AMD
KCDS 182010Z 1820/1918 11014KT P6SM SCT020 OVC090
     FM190900 16008KT 3SM BR BKN300=



000
FTUS44 KLUB 182000 AAB
TAFLBB
TAF AMD
KLBB 182009Z 1820/1918 13015KT P6SM SCT010 BKN030 OVC090
      TEMPO 1820/1822 -SHRA BKN010 OVC040
     FM182200 13015KT 5SM TSRA SCT010 BKN025CB
     FM190200 17008KT 6SM RA BR SCT015 BKN110
     FM190900 11010KT 3SM -RA BR OVC008=



000
FTUS44 KLUB 181900 AAA
TAFLBB
TAF AMD
KLBB 181906Z 1819/1918 09012KT P6SM SCT005 BKN030 OVC090
      TEMPO 1819/1822 -SHRA BKN005 OVC040
     FM182200 09014G21KT 5SM TSRA SCT010 BKN025CB
      TEMPO 1822/1902 2SM +TSRA BKN010CB
     FM190200 17008KT 6SM RA BR SCT015 BKN110
     FM190900 11010KT 3SM -RA BR OVC008=



000
FTUS44 KLUB 181700
TAFCDS
TAF
KCDS 181727Z 1818/1918 VRB05KT P6SM SCT040 BKN250
     FM182000 11014KT P6SM BKN015 OVC040
      TEMPO 1820/1824 6SM TSRA BKN040CB
     FM190900 16008KT 3SM BR BKN300=



000
FTUS44 KLUB 181700
TAFLBB
TAF
KLBB 181727Z 1818/1918 09012KT P6SM SCT005 BKN030 OVC090
      TEMPO 1818/1822 -SHRA BKN015 OVC040
     FM182200 09014G21KT 5SM TSRA SCT010 BKN025CB
      TEMPO 1822/1902 2SM +TSRA BKN010CB
     FM190200 17008KT 6SM RA BR SCT015 BKN110
     FM190900 11010KT 3SM -RA BR OVC008=



000
FTUS44 KLUB 181600 AAB
TAFCDS
TAF AMD
KCDS 181607Z 1816/1912 VRB05KT P6SM SCT015 SCT035 BKN045
      TEMPO 1816/1820 -SHRA BKN035
     FM182000 11014KT P6SM BKN015 OVC025
      TEMPO 1820/1824 6SM TSRA BKN025CB
     FM190900 16008KT 3SM BR BKN300=



000
FTUS44 KLUB 181600 AAB
TAFCDS
TAF AMD
KCDS 181607Z 1816/1912 VRB05KT P6SM SCT015 SCT035 BKN045
      TEMPO 1816/1820 -SHRA BKN035
     FM182000 11014KT P6SM BKN015 OVC025
      TEMPO 1820/1824 6SM TSRA BKN025CB
     FM190900 16008KT 3SM BR BKN300=



000
FTUS44 KLUB 181500 AAC
TAFLBB
TAF AMD
KLBB 181557Z 1816/1912 09013KT P6SM VCTS SCT003 BKN014 OVC020CB
      TEMPO 1816/1817 4SM TSRA BKN003 OVC012CB
     FM181700 14009KT P6SM -SHRA OVC010
     FM182000 12007KT P6SM SCT025 BKN130
     FM190200 14008KT 6SM RADZ SCT015 BKN110=



000
FTUS44 KLUB 181400 AAA
TAFCDS
TAF AMD
KCDS 181425Z 1814/1912 VRB05KT P6SM SCT060 BKN120
      TEMPO 1814/1818 -SHRA BKN060
     FM181800 16007KT P6SM SCT080 OVC120 PROB30 1823/1903 6SM TSRA
      BKN070CB
     FM190900 16008KT 3SM BR BKN300=



000
FTUS44 KLUB 181400 AAB
TAFLBB
TAF AMD
KLBB 181415Z 1814/1912 12006KT P6SM VCSH SCT003 OVC012
      TEMPO 1814/1817 4SM TSRA BKN003CB
     FM181700 14009KT P6SM -SHRA OVC010
     FM182000 12007KT P6SM SCT025 BKN130
     FM190200 14008KT 6SM RADZ SCT015 BKN110=



000
FTUS44 KLUB 181200 AAA
TAFLBB
TAF AMD
KLBB 181238Z 1813/1912 16009KT P6SM VCSH BKN012 OVC045
      TEMPO 1813/1815 6SM TSRA BKN009CB
     FM181500 14009KT P6SM -SHRA OVC010
     FM182000 12007KT P6SM SCT025 BKN130
     FM190200 14008KT 6SM RADZ SCT015 BKN110=



000
FTUS44 KLUB 181100
TAFLBB
TAF
KLBB 181124Z 1812/1912 16009KT P6SM VCSH BKN009 OVC045
      TEMPO 1812/1815 6SM SHRA
     FM181500 14009KT P6SM -SHRA OVC010
     FM182000 12007KT P6SM SCT025 BKN130
     FM190200 14008KT 6SM RADZ SCT015 BKN110=



000
FTUS44 KLUB 181100
TAFCDS
TAF
KCDS 181124Z 1812/1912 16007KT P6SM SCT080 OVC120 PROB30 1821/1903
      6SM TSRA BKN070CB
     FM190900 16008KT 3SM BR BKN300=



000
FTUS44 KLUB 181000 AAC
TAFLBB
TAF AMD
KLBB 181032Z 1811/1906 16009KT P6SM BKN009 BKN011 OVC045
      TEMPO 1811/1815 4SM SHRA
     FM181500 14009KT P6SM -SHRA OVC030=



000
FTUS44 KLUB 181000 AAB
TAFLBB
TAF AMD
KLBB 181005Z 1810/1906 16009KT P6SM BKN009 BKN011 OVC045
     FM181500 14009KT P6SM -SHRA OVC030=



000
FTUS44 KLUB 181000 AAA
TAFLBB
TAF AMD
KLBB 181004Z 1810/1906 16009KT P6SM FEW008 BKN011 OVC045
     FM181500 14009KT P6SM -SHRA OVC030=



000
FTUS44 KLUB 180500
TAFLBB
TAF
KLBB 180520Z 1806/1906 16009KT P6SM OVC045
     FM181500 14009KT P6SM -SHRA OVC030=



000
FTUS44 KLUB 180500
TAFCDS
TAF
KCDS 180520Z 1806/1906 18007KT P6SM -SHRA BKN035 OVC150
     FM180900 16007KT P6SM OVC080=



000
FTUS44 KLUB 180400 AAB
TAFLBB
TAF AMD
KLBB 180408Z 1804/1824 16009KT P6SM OVC045
     FM181700 14009KT P6SM -SHRA OVC030=



000
FTUS44 KLUB 180300 AAA
TAFLBB
TAF AMD
KLBB 180312Z 1803/1824 13010KT 5SM -SHRA OVC015
      TEMPO 1803/1805 OVC005
     FM181700 14009KT P6SM OVC030=



000
FTUS44 KLUB 172300
TAFLBB
TAF
KLBB 172330Z 1800/1824 VRB06KT 5SM -TSRA OVC040CB
     FM180100 VRB06KT 6SM -SHRA OVC040
     FM180800 VRB06KT 5SM -SHRA OVC025
     FM181700 14009KT P6SM OVC030=



000
FTUS44 KLUB 172300
TAFCDS
TAF
KCDS 172330Z 1800/1824 23007KT P6SM -SHRA BKN035 OVC150
     FM181600 16007KT P6SM SCT050=



000
FTUS44 KLUB 172200 AAC
TAFLBB
TAF AMD
KLBB 172223Z 1722/1818 VRB06KT 6SM TSRA OVC040CB
      TEMPO 1722/1723 1SM TSRA OVC025CB
     FM180000 15006KT P6SM -SHRA SCT030 OVC060=



000
FTUS44 KLUB 172100 AAB
TAFLBB
TAF AMD
KLBB 172153Z 1722/1818 VRB15G25KT 6SM TSRA OVC025CB
     FM180000 15006KT 6SM -RA BR SCT030 OVC060=



000
FTUS44 KLUB 172000 AAA
TAFLBB
TAF AMD
KLBB 172052Z 1721/1818 22006KT P6SM SCT040 SCT090 BKN250
     FM172100 VRB06KT P6SM BKN040 OVC150
      TEMPO 1721/1801 VRB25G45KT 3SM TSRA OVC025CB
     FM180100 15006KT 6SM -RA BR SCT030 OVC060=



000
FTUS44 KLUB 172000 AAA
TAFCDS
TAF AMD
KCDS 172042Z 1721/1818 24007KT P6SM VCSH SCT060 BKN150=



000
FTUS44 KLUB 171700
TAFLBB
TAF
KLBB 171735Z 1718/1818 22006KT P6SM SCT040 SCT090 BKN250
     FM172100 VRB06KT P6SM BKN040 OVC150
      TEMPO 1721/1801 6SM -TSRA OVC025CB
     FM180100 15006KT 6SM -RA BR SCT030 OVC060=



000
FTUS44 KLUB 171700
TAFCDS
TAF
KCDS 171735Z 1718/1818 24007KT P6SM SCT060 BKN180=



000
FTUS44 KLUB 171500 AAB
TAFLBB
TAF AMD
KLBB 171527Z 1715/1812 22006KT P6SM SCT060 OVC090
      TEMPO 1716/1719 -SHRA BKN060
     FM172100 VRB06KT P6SM OVC040
      TEMPO 1721/1801 6SM -TSRA OVC015CB
     FM180300 15008KT 6SM -RA BR OVC060=



000
FTUS44 KLUB 171200 AAA
TAFLBB
TAF AMD
KLBB 171207Z 1712/1812 22006KT 6SM BR BKN100 OVC150
      TEMPO 1712/1715 4SM -RA
     FM172100 VRB06KT P6SM OVC040 PROB30 1721/1803 6SM -TSRA
      OVC015CB
     FM180300 15008KT 6SM -RA BR OVC060=



000
FTUS44 KLUB 171100
TAFLBB
TAF
KLBB 171120Z 1712/1812 22006KT 6SM BR BKN100 OVC150
     FM172100 VRB06KT P6SM OVC040 PROB30 1721/1803 6SM -TSRA
      OVC015CB
     FM180300 15008KT 6SM -RA BR OVC060=



000
FTUS44 KLUB 171100
TAFCDS
TAF
KCDS 171120Z 1712/1812 24007KT P6SM SCT060 BKN180=



000
FTUS44 KLUB 170500
TAFCDS
TAF
KCDS 170520Z 1706/1806 24007KT P6SM BKN150
     FM171700 20011KT P6SM BKN050 BKN150=



000
FTUS44 KLUB 170500
TAFLBB
TAF
KLBB 170520Z 1706/1806 22006KT P6SM BKN100 OVC150
      TEMPO 1706/1709 -RADZ FEW005
     FM171500 22006KT P6SM BKN015 OVC030 PROB30 1715/1721 6SM -TSRA
      OVC015CB
     FM172100 VRB06KT P6SM BKN015 OVC030 PROB30 1721/1803 6SM -TSRA
      OVC015CB=



000
FTUS44 KLUB 170100 AAA
TAFLBB
TAF AMD
KLBB 170125Z 1701/1724 25005KT P6SM -RA VCSH FEW035 BKN120 OVC260
     FM170600 22006KT P6SM OVC010
     FM171500 22006KT P6SM BKN015 OVC030 PROB30 1715/1721 6SM -TSRA
      OVC015CB
     FM172100 VRB06KT P6SM BKN015 OVC030 PROB30 1721/1724 6SM -TSRA
      OVC015CB=



000
FTUS44 KLUB 162300
TAFCDS
TAF
KCDS 162324Z 1700/1724 17006KT P6SM SKC
     FM170600 24007KT P6SM SCT050 BKN120=



000
FTUS44 KLUB 162300
TAFLBB
TAF
KLBB 162324Z 1700/1724 19006KT P6SM VCSH FEW035 SCT100 OVC150
      TEMPO 1700/1703 -RA BKN030
     FM170600 22006KT P6SM OVC010
     FM171500 22006KT P6SM BKN015 OVC030 PROB30 1715/1721 6SM -TSRA
      OVC015CB
     FM172100 VRB06KT P6SM BKN015 OVC030 PROB30 1721/1724 6SM -TSRA
      OVC015CB=



000
FTUS44 KLUB 162000 AAB
TAFLBB
TAF AMD
KLBB 162026Z 1620/1718 18009KT P6SM VCTS SCT030 BKN060CB
      TEMPO 1621/1623 -SHRA BKN030
     FM171100 22010KT P6SM SCT015 BKN050=



000
FTUS44 KLUB 161800 AAA
TAFLBB
TAF AMD
KLBB 161836Z 1619/1718 18009KT P6SM VCTS SCT025CB BKN040
     FM171100 22010KT P6SM SCT015 BKN050=



    US Dept of Commerce
    National Oceanic and Atmospheric Administration
    National Weather Service
    1325 East West Highway
    Silver Spring, MD 20910
    Page Author: NWS Internet Services Team
Disclaimer
Information Quality
Credits
Glossary
Privacy Policy
Freedom of Information Act (FOIA)
About Us
Career Opportunities